Time;durP1;ratioP1;P1;durP2;ratioP2;P2;SDS_P1;SDS_P2;PMS_P1;PMS_P2;Temp;Humidity;BMP_temperature;BMP_pressure;BME280_temperature;BME280_humidity;BME280_pressure;Samples;Min_cycle;Max_cycle;Signal;HPM_P1;HPM_P2
2023/04/19 00:00:39;;;;;;;5.30;2.95;;;11.10;99.90;;;;;;4971734;28;20102;-68
2023/04/19 00:03:07;;;;;;;5.07;2.47;;;10.90;99.90;;;;;;4978542;28;20481;-68
2023/04/19 00:05:32;;;;;;;4.60;2.50;;;11.00;99.90;;;;;;4973036;28;20031;-68
2023/04/19 00:07:58;;;;;;;7.55;3.30;;;11.00;99.90;;;;;;4971965;28;20431;-69
2023/04/19 00:10:25;;;;;;;11.73;3.33;;;11.10;99.90;;;;;;4971682;28;20402;-68
2023/04/19 00:12:51;;;;;;;5.50;2.78;;;11.00;99.90;;;;;;4970291;28;20643;-67
2023/04/19 00:15:18;;;;;;;6.28;2.85;;;11.10;99.90;;;;;;4973178;28;20096;-68
2023/04/19 00:17:43;;;;;;;6.45;2.78;;;11.10;99.90;;;;;;4971615;28;20512;-68
2023/04/19 00:20:11;;;;;;;5.00;2.58;;;11.10;99.90;;;;;;4972651;28;20042;-68
2023/04/19 00:22:38;;;;;;;5.68;2.28;;;11.30;99.90;;;;;;4971704;28;20490;-69
2023/04/19 00:25:04;;;;;;;4.85;2.95;;;11.30;99.90;;;;;;4972604;28;20027;-68
2023/04/19 00:27:30;;;;;;;7.30;3.35;;;11.30;99.90;;;;;;4971005;28;20027;-67
2023/04/19 00:29:56;;;;;;;6.18;3.13;;;11.20;99.90;;;;;;4972090;28;20033;-67
2023/04/19 00:32:22;;;;;;;5.43;3.08;;;11.20;99.90;;;;;;4971454;28;20509;-67
2023/04/19 00:34:48;;;;;;;7.25;2.88;;;11.20;99.90;;;;;;4972536;28;20038;-67
2023/04/19 00:37:14;;;;;;;6.47;2.63;;;11.00;99.90;;;;;;4971390;28;20034;-68
2023/04/19 00:39:40;;;;;;;6.10;2.55;;;11.00;99.90;;;;;;4972149;28;20033;-67
2023/04/19 00:42:05;;;;;;;7.00;2.67;;;10.90;99.90;;;;;;4969848;28;20062;-67
2023/04/19 00:44:31;;;;;;;4.07;2.20;;;10.90;99.90;;;;;;4972246;28;20035;-67
2023/04/19 00:46:58;;;;;;;5.20;2.70;;;10.90;99.90;;;;;;4971263;28;20023;-67
2023/04/19 00:49:25;;;;;;;5.68;2.90;;;10.90;99.90;;;;;;4970608;28;20084;-67
2023/04/19 00:51:51;;;;;;;5.07;2.33;;;10.90;99.90;;;;;;4969395;28;22156;-68
2023/04/19 00:54:18;;;;;;;4.97;2.65;;;10.90;99.90;;;;;;4972171;28;20040;-67
2023/04/19 00:56:45;;;;;;;6.32;2.88;;;10.80;99.90;;;;;;4953720;28;20033;-67
2023/04/19 00:59:13;;;;;;;6.28;3.13;;;10.80;99.90;;;;;;4971958;28;20030;-68
2023/04/19 01:01:40;;;;;;;7.82;2.63;;;10.90;99.90;;;;;;4970120;28;20109;-68
2023/04/19 01:04:06;;;;;;;7.70;2.78;;;11.00;99.90;;;;;;4970009;28;20031;-68
2023/04/19 01:06:34;;;;;;;5.93;2.80;;;10.90;99.90;;;;;;4965354;28;20073;-68
2023/04/19 01:09:00;;;;;;;7.78;3.08;;;10.90;99.90;;;;;;4971380;28;20117;-68
2023/04/19 01:11:27;;;;;;;7.20;2.92;;;10.90;99.90;;;;;;4971457;28;20042;-69
2023/04/19 01:13:55;;;;;;;6.63;2.90;;;10.80;99.90;;;;;;4970493;28;20026;-68
2023/04/19 01:16:21;;;;;;;7.03;3.03;;;10.80;99.90;;;;;;4971717;28;20039;-68
2023/04/19 01:18:48;;;;;;;8.27;3.58;;;10.70;99.90;;;;;;4961431;28;20522;-67
2023/04/19 01:21:13;;;;;;;6.95;3.35;;;10.70;99.90;;;;;;4971644;28;20043;-68
2023/04/19 01:23:39;;;;;;;6.43;3.13;;;10.70;99.90;;;;;;4968982;28;20034;-67
2023/04/19 01:26:05;;;;;;;7.07;3.42;;;10.70;99.90;;;;;;4972593;28;20027;-68
2023/04/19 01:28:31;;;;;;;7.00;3.10;;;10.70;99.90;;;;;;4970196;28;20023;-68
2023/04/19 01:30:58;;;;;;;7.57;3.45;;;10.80;99.90;;;;;;4971583;28;20368;-68
2023/04/19 01:33:23;;;;;;;6.22;3.17;;;10.80;99.90;;;;;;4976977;28;20042;-68
2023/04/19 01:35:49;;;;;;;4.63;2.85;;;10.90;99.90;;;;;;4967436;28;20027;-68
2023/04/19 01:38:18;;;;;;;5.60;1.98;;;10.90;99.90;;;;;;4964900;28;20031;-68
2023/04/19 01:40:44;;;;;;;6.30;2.97;;;10.80;99.90;;;;;;4971589;28;20026;-68
2023/04/19 01:43:13;;;;;;;4.28;2.85;;;10.80;99.90;;;;;;4969927;28;20549;-68
2023/04/19 01:45:39;;;;;;;7.25;2.70;;;10.80;99.90;;;;;;4970308;28;20045;-68
2023/04/19 01:48:05;;;;;;;5.50;2.63;;;10.70;99.90;;;;;;4968843;28;20034;-68
2023/04/19 01:50:31;;;;;;;6.40;2.50;;;10.80;99.90;;;;;;4970244;28;20035;-67
2023/04/19 01:52:58;;;;;;;5.50;2.97;;;10.70;99.90;;;;;;4968915;28;20417;-68
2023/04/19 01:55:24;;;;;;;5.28;2.08;;;10.70;99.90;;;;;;4970248;28;20498;-67
2023/04/19 01:57:53;;;;;;;5.43;2.83;;;10.80;99.90;;;;;;4968470;28;20039;-68
2023/04/19 02:00:20;;;;;;;4.32;2.35;;;10.90;99.90;;;;;;4970102;28;20674;-68
2023/04/19 02:02:45;;;;;;;4.13;2.28;;;10.90;99.90;;;;;;4970113;28;20042;-67
2023/04/19 02:05:11;;;;;;;5.00;2.67;;;10.80;99.90;;;;;;4970378;28;20035;-69
2023/04/19 02:07:37;;;;;;;5.32;2.15;;;10.90;99.90;;;;;;4970074;28;20034;-68
2023/04/19 02:10:04;;;;;;;6.40;2.97;;;11.00;99.90;;;;;;4970008;28;20019;-69
2023/04/19 02:12:33;;;;;;;7.75;3.40;;;11.10;99.90;;;;;;4970075;28;20114;-68
2023/04/19 02:15:01;;;;;;;5.88;3.33;;;10.90;99.90;;;;;;4970064;28;20078;-69
2023/04/19 02:17:27;;;;;;;3.95;2.38;;;10.80;99.90;;;;;;4971297;28;20121;-69
2023/04/19 02:19:53;;;;;;;5.68;2.92;;;10.70;99.90;;;;;;4971169;28;20034;-69
2023/04/19 02:22:19;;;;;;;6.45;2.85;;;10.80;99.90;;;;;;4971495;28;20030;-67
2023/04/19 02:24:46;;;;;;;6.65;2.72;;;10.80;99.90;;;;;;4973646;28;20481;-68
2023/04/19 02:27:12;;;;;;;11.88;3.45;;;10.90;99.90;;;;;;4972053;28;20054;-68
2023/04/19 02:29:38;;;;;;;7.47;3.00;;;10.70;99.90;;;;;;4973169;28;20030;-68
2023/04/19 02:32:05;;;;;;;7.20;2.40;;;10.60;99.90;;;;;;4957252;28;20043;-68
2023/04/19 02:34:34;;;;;;;4.50;2.63;;;10.70;99.90;;;;;;4974680;28;20030;-68
2023/04/19 02:37:00;;;;;;;6.63;3.28;;;10.90;99.90;;;;;;4973740;28;20031;-68
2023/04/19 02:39:26;;;;;;;5.53;3.08;;;10.80;99.90;;;;;;4956689;28;20031;-68
2023/04/19 02:41:52;;;;;;;7.30;2.97;;;10.70;99.90;;;;;;4973487;28;20451;-68
2023/04/19 02:44:18;;;;;;;5.68;2.72;;;10.60;99.90;;;;;;4973169;28;20646;-67
2023/04/19 02:46:51;;;;;;;7.18;2.65;;;10.60;99.90;;;;;;4972741;28;20033;-67
2023/04/19 02:49:18;;;;;;;6.85;3.00;;;10.60;99.90;;;;;;4972789;28;20019;-67
2023/04/19 02:51:44;;;;;;;4.32;1.88;;;10.60;99.90;;;;;;4973127;28;20042;-68
2023/04/19 02:54:11;;;;;;;6.22;2.60;;;10.60;99.90;;;;;;4973007;28;20031;-67
2023/04/19 02:56:37;;;;;;;5.45;2.85;;;10.50;99.90;;;;;;4972434;28;20197;-67
2023/04/19 02:59:03;;;;;;;3.65;2.22;;;10.60;99.90;;;;;;4973414;28;20121;-68
2023/04/19 03:01:30;;;;;;;5.38;2.28;;;10.60;99.90;;;;;;4974024;28;20102;-68
2023/04/19 03:03:56;;;;;;;6.88;2.50;;;10.50;99.90;;;;;;4972411;28;20035;-68
2023/04/19 03:06:22;;;;;;;6.55;2.80;;;10.50;99.90;;;;;;4973108;28;20035;-68
2023/04/19 03:08:48;;;;;;;5.95;2.83;;;10.50;99.90;;;;;;4969235;28;20039;-68
2023/04/19 03:11:16;;;;;;;3.42;2.08;;;10.50;99.90;;;;;;4974111;28;20039;-67
2023/04/19 03:13:42;;;;;;;4.85;3.05;;;10.50;99.90;;;;;;4972713;28;20031;-68
2023/04/19 03:16:08;;;;;;;6.97;2.88;;;10.50;99.90;;;;;;4969981;28;20082;-68
2023/04/19 03:18:35;;;;;;;6.88;3.75;;;10.50;99.90;;;;;;4966877;23;20053;-69
2023/04/19 03:21:02;;;;;;;6.15;3.38;;;10.60;99.90;;;;;;4954052;29;20458;-70
2023/04/19 03:23:28;;;;;;;5.50;2.67;;;10.60;99.90;;;;;;4958463;28;20038;-69
2023/04/19 03:25:54;;;;;;;6.18;2.67;;;10.60;99.90;;;;;;4952879;29;20034;-68
2023/04/19 03:28:19;;;;;;;6.32;2.85;;;10.60;99.90;;;;;;4947119;29;20031;-67
2023/04/19 03:30:45;;;;;;;6.35;3.25;;;10.60;99.90;;;;;;4954050;29;20030;-70
2023/04/19 03:33:11;;;;;;;5.43;2.60;;;10.60;99.90;;;;;;4946046;28;20495;-70
2023/04/19 03:35:37;;;;;;;6.30;3.70;;;10.40;99.90;;;;;;4953773;29;20031;-69
2023/04/19 03:38:03;;;;;;;7.82;2.60;;;10.40;99.90;;;;;;4947052;28;20118;-69
2023/04/19 03:40:32;;;;;;;6.03;2.75;;;10.40;99.90;;;;;;4952700;29;20453;-69
2023/04/19 03:42:58;;;;;;;7.97;3.42;;;10.40;99.90;;;;;;4945946;29;20400;-68
2023/04/19 03:45:23;;;;;;;6.70;3.33;;;10.40;99.90;;;;;;4953978;29;20031;-69
2023/04/19 03:47:49;;;;;;;5.30;2.50;;;10.40;99.90;;;;;;4946594;29;20046;-69
2023/04/19 03:50:15;;;;;;;4.90;2.85;;;10.40;99.90;;;;;;4953826;29;20102;-69
2023/04/19 03:52:41;;;;;;;10.02;3.30;;;10.50;99.90;;;;;;4947138;29;20467;-69
2023/04/19 03:55:08;;;;;;;5.85;3.00;;;10.50;99.90;;;;;;4946190;29;20035;-69
2023/04/19 03:57:33;;;;;;;6.35;3.13;;;10.40;99.90;;;;;;4947528;29;20037;-69
2023/04/19 04:00:00;;;;;;;7.18;3.15;;;10.50;99.90;;;;;;4952484;29;20027;-69
2023/04/19 04:02:25;;;;;;;7.90;3.35;;;10.40;99.90;;;;;;4948636;28;20492;-69
2023/04/19 04:04:55;;;;;;;6.93;2.67;;;10.50;99.90;;;;;;4966416;28;20055;-69
2023/04/19 04:07:22;;;;;;;6.63;3.17;;;10.60;99.90;;;;;;4948604;29;20056;-69
2023/04/19 04:09:48;;;;;;;6.82;3.15;;;10.60;99.90;;;;;;4950889;29;20051;-68
2023/04/19 04:12:14;;;;;;;7.43;2.53;;;10.50;99.90;;;;;;4948732;29;20073;-69
2023/04/19 04:14:40;;;;;;;7.90;3.08;;;10.50;99.90;;;;;;4949921;29;20054;-69
2023/04/19 04:17:05;;;;;;;6.05;2.88;;;10.50;99.90;;;;;;4950763;29;20048;-70
2023/04/19 04:19:31;;;;;;;6.55;2.95;;;10.40;99.90;;;;;;4948692;29;20043;-67
2023/04/19 04:21:57;;;;;;;6.30;2.50;;;10.30;99.90;;;;;;4965449;28;20110;-68
2023/04/19 04:24:23;;;;;;;6.07;2.42;;;10.20;99.90;;;;;;4953349;29;20232;-68
2023/04/19 04:26:50;;;;;;;4.82;2.67;;;10.20;99.90;;;;;;4952643;29;20039;-68
2023/04/19 04:29:16;;;;;;;7.30;2.88;;;10.20;99.90;;;;;;4952645;29;20070;-68
2023/04/19 04:31:42;;;;;;;6.47;3.15;;;10.20;99.90;;;;;;4953306;28;20491;-68
2023/04/19 04:34:08;;;;;;;5.00;2.20;;;10.20;99.90;;;;;;4945863;29;20042;-68
2023/04/19 04:36:36;;;;;;;4.85;2.35;;;10.20;99.90;;;;;;4953013;28;20525;-69
2023/04/19 04:39:03;;;;;;;7.72;3.35;;;10.30;99.90;;;;;;4951493;29;20494;-68
2023/04/19 04:41:32;;;;;;;5.45;2.65;;;10.30;99.90;;;;;;4964033;28;20032;-69
2023/04/19 04:43:59;;;;;;;5.40;2.75;;;10.30;99.90;;;;;;4922799;28;20042;-69
2023/04/19 04:46:25;;;;;;;5.53;2.88;;;10.40;99.90;;;;;;4961108;28;20480;-68
2023/04/19 04:48:52;;;;;;;5.65;2.78;;;10.30;99.90;;;;;;4944284;29;20093;-69
2023/04/19 04:51:18;;;;;;;6.28;3.00;;;10.30;99.90;;;;;;4952170;29;20023;-69
2023/04/19 04:53:44;;;;;;;4.55;2.60;;;10.30;99.90;;;;;;4929251;29;20038;-69
2023/04/19 04:56:10;;;;;;;8.25;3.50;;;10.30;99.90;;;;;;4953325;29;20089;-70
2023/04/19 04:58:36;;;;;;;6.57;2.60;;;10.30;99.90;;;;;;4945607;29;20472;-68
2023/04/19 05:01:02;;;;;;;7.38;2.92;;;10.40;99.90;;;;;;4951350;29;20558;-68
2023/04/19 05:03:28;;;;;;;5.82;2.50;;;10.40;99.90;;;;;;4951387;29;20039;-68
2023/04/19 05:05:54;;;;;;;6.15;3.05;;;10.40;99.90;;;;;;4952683;29;20027;-68
2023/04/19 05:08:19;;;;;;;6.97;3.30;;;10.40;99.90;;;;;;4945277;29;20102;-69
2023/04/19 05:10:45;;;;;;;6.95;3.15;;;10.40;99.90;;;;;;4951272;29;20042;-68
2023/04/19 05:13:11;;;;;;;4.90;2.40;;;10.50;99.90;;;;;;4928320;29;20031;-68
2023/04/19 05:15:37;;;;;;;4.30;2.60;;;10.50;99.90;;;;;;4952694;29;20467;-68
2023/04/19 05:18:04;;;;;;;6.65;2.55;;;10.50;99.90;;;;;;4944938;29;20592;-68
2023/04/19 05:20:32;;;;;;;6.28;2.90;;;10.40;99.90;;;;;;4952058;29;20395;-68
2023/04/19 05:23:00;;;;;;;7.00;3.17;;;10.50;99.90;;;;;;4944200;29;20036;-67
2023/04/19 05:25:26;;;;;;;6.20;2.70;;;10.60;99.90;;;;;;4951245;29;20035;-69
2023/04/19 05:27:52;;;;;;;9.38;3.35;;;10.40;99.90;;;;;;4945036;28;20130;-68
2023/04/19 05:30:18;;;;;;;6.05;2.80;;;10.40;99.90;;;;;;4952182;29;20042;-69
2023/04/19 05:32:44;;;;;;;7.57;3.33;;;10.50;99.90;;;;;;4944057;29;20496;-69
2023/04/19 05:35:11;;;;;;;7.38;2.80;;;10.60;99.90;;;;;;4950997;29;20110;-68
2023/04/19 05:37:37;;;;;;;8.40;2.75;;;10.60;99.90;;;;;;4944447;29;20059;-68
2023/04/19 05:40:05;;;;;;;6.65;3.13;;;10.70;99.90;;;;;;4950064;29;20348;-70
2023/04/19 05:42:31;;;;;;;11.23;2.78;;;10.80;99.90;;;;;;4951236;29;20035;-68
2023/04/19 05:44:57;;;;;;;6.25;3.22;;;10.90;99.90;;;;;;4952225;29;20028;-67
2023/04/19 05:47:22;;;;;;;8.65;3.55;;;10.90;99.90;;;;;;4947112;28;20337;-68
2023/04/19 05:49:48;;;;;;;6.10;2.70;;;10.90;99.90;;;;;;4943785;28;20050;-69
2023/04/19 05:52:14;;;;;;;4.95;2.70;;;11.00;99.90;;;;;;4949022;28;20126;-68
2023/04/19 05:54:40;;;;;;;9.02;4.43;;;11.00;99.90;;;;;;4948481;29;20035;-67
2023/04/19 05:57:05;;;;;;;8.10;2.97;;;11.00;99.90;;;;;;4952323;28;20039;-68
2023/04/19 05:59:31;;;;;;;5.65;2.95;;;11.10;99.90;;;;;;4950835;29;20380;-67
2023/04/19 06:01:59;;;;;;;9.50;3.78;;;11.00;99.90;;;;;;4973123;28;20078;-68
2023/04/19 06:04:26;;;;;;;10.07;3.33;;;11.10;99.90;;;;;;4965179;28;20024;-69
2023/04/19 06:06:52;;;;;;;5.63;3.00;;;11.10;99.90;;;;;;4955592;28;20058;-68
2023/04/19 06:09:18;;;;;;;6.38;3.00;;;11.10;99.90;;;;;;4949141;29;20019;-68
2023/04/19 06:11:44;;;;;;;6.65;2.75;;;11.10;99.90;;;;;;4954558;29;20463;-69
2023/04/19 06:14:14;;;;;;;7.22;3.30;;;11.10;99.90;;;;;;4969300;28;20495;-68
2023/04/19 06:16:40;;;;;;;7.57;2.92;;;11.10;99.90;;;;;;4955688;28;20066;-67
2023/04/19 06:19:09;;;;;;;8.07;4.45;;;11.20;99.90;;;;;;4948141;28;20480;-69
2023/04/19 06:21:35;;;;;;;6.20;3.22;;;11.10;99.90;;;;;;4955551;28;20035;-68
2023/04/19 06:24:01;;;;;;;7.20;2.92;;;11.20;99.90;;;;;;4947227;29;20043;-69
2023/04/19 06:26:27;;;;;;;9.63;2.90;;;11.40;99.90;;;;;;4955653;29;20552;-69
2023/04/19 06:28:52;;;;;;;8.00;3.60;;;11.50;99.90;;;;;;4954263;29;20035;-68
2023/04/19 06:31:18;;;;;;;27.13;4.63;;;11.30;99.90;;;;;;4955451;28;20031;-67
2023/04/19 06:33:44;;;;;;;6.22;3.08;;;11.50;99.90;;;;;;4947968;29;20034;-67
2023/04/19 06:36:10;;;;;;;7.32;3.75;;;11.70;99.90;;;;;;4955293;28;20035;-67
2023/04/19 06:38:40;;;;;;;6.95;3.90;;;11.80;99.90;;;;;;4948160;29;20027;-67
2023/04/19 06:41:06;;;;;;;6.10;3.45;;;12.00;99.90;;;;;;4955061;29;20033;-68
2023/04/19 06:43:32;;;;;;;7.70;3.10;;;12.00;99.90;;;;;;4948156;29;20641;-68
2023/04/19 06:45:58;;;;;;;9.02;4.07;;;12.10;99.90;;;;;;4955170;29;20031;-68
2023/04/19 06:48:25;;;;;;;9.35;3.65;;;12.20;99.90;;;;;;4953775;29;20098;-68
2023/04/19 06:50:50;;;;;;;7.15;3.35;;;12.10;99.90;;;;;;4954786;29;20034;-67
2023/04/19 06:53:16;;;;;;;6.10;2.97;;;12.00;99.90;;;;;;4942237;29;20027;-67
2023/04/19 06:55:42;;;;;;;9.38;3.22;;;11.80;99.90;;;;;;4951031;29;20511;-67
2023/04/19 06:58:09;;;;;;;7.38;3.55;;;11.80;99.90;;;;;;4951089;28;20037;-67
2023/04/19 07:00:36;;;;;;;5.45;2.75;;;12.00;99.90;;;;;;4947780;28;20035;-67
2023/04/19 07:03:02;;;;;;;6.85;3.10;;;12.00;99.90;;;;;;4950642;29;20047;-67
2023/04/19 07:05:29;;;;;;;5.82;2.72;;;12.30;99.90;;;;;;4934843;29;20031;-67
2023/04/19 07:07:55;;;;;;;5.28;2.67;;;12.40;99.90;;;;;;4946869;28;20051;-67
2023/04/19 07:10:21;;;;;;;7.18;2.67;;;12.60;99.90;;;;;;4949002;29;20444;-67
2023/04/19 07:12:47;;;;;;;5.53;2.95;;;12.70;99.90;;;;;;4951751;29;20027;-67
2023/04/19 07:15:12;;;;;;;7.65;3.75;;;12.80;99.90;;;;;;4952497;29;20494;-67
2023/04/19 07:17:39;;;;;;;5.72;2.50;;;12.80;99.90;;;;;;4965540;28;20476;-67
2023/04/19 07:20:06;;;;;;;5.63;2.97;;;12.80;99.90;;;;;;4968161;28;20031;-68
2023/04/19 07:22:32;;;;;;;5.32;2.55;;;13.10;99.90;;;;;;4964657;28;20027;-68
2023/04/19 07:24:58;;;;;;;6.45;2.80;;;13.10;99.90;;;;;;4968871;28;20027;-69
2023/04/19 07:27:24;;;;;;;3.65;2.28;;;13.40;99.90;;;;;;4948862;29;20026;-68
2023/04/19 07:29:51;;;;;;;4.80;2.55;;;13.40;99.90;;;;;;4955731;28;20027;-68
2023/04/19 07:32:17;;;;;;;6.45;2.80;;;13.50;99.90;;;;;;4948570;28;20042;-67
2023/04/19 07:34:44;;;;;;;5.57;2.65;;;13.60;99.90;;;;;;4954562;28;20035;-68
2023/04/19 07:37:10;;;;;;;7.38;2.88;;;13.60;99.90;;;;;;4953167;29;20039;-67
2023/04/19 07:39:35;;;;;;;7.20;2.75;;;13.50;99.90;;;;;;4965450;28;20043;-67
2023/04/19 07:42:01;;;;;;;8.43;2.90;;;12.90;99.90;;;;;;4945744;29;20035;-67
2023/04/19 07:44:27;;;;;;;4.25;2.30;;;13.00;99.90;;;;;;4954554;28;20451;-67
2023/04/19 07:46:53;;;;;;;4.90;2.15;;;13.10;99.90;;;;;;4948201;29;20118;-67
2023/04/19 07:49:18;;;;;;;4.55;2.40;;;13.20;99.90;;;;;;4953500;28;20067;-66
2023/04/19 07:51:44;;;;;;;4.45;2.47;;;13.00;99.90;;;;;;4947980;29;20035;-66
2023/04/19 07:54:10;;;;;;;4.72;2.08;;;12.90;99.90;;;;;;4968551;28;20039;-65
2023/04/19 07:56:36;;;;;;;3.97;2.17;;;13.10;99.90;;;;;;4946614;29;20031;-64
2023/04/19 07:59:02;;;;;;;14.25;2.63;;;12.90;99.90;;;;;;4953622;29;20507;-67
2023/04/19 08:01:29;;;;;;;5.97;2.85;;;13.00;99.90;;;;;;4954361;28;20042;-67
2023/04/19 08:03:54;;;;;;;6.13;2.20;;;13.00;99.90;;;;;;4950087;28;20039;-68
2023/04/19 08:06:20;;;;;;;3.25;1.70;;;13.40;99.90;;;;;;4951441;29;20027;-67
2023/04/19 08:08:47;;;;;;;4.85;2.42;;;13.60;99.90;;;;;;4953352;29;20035;-67
2023/04/19 08:11:13;;;;;;;2.65;1.67;;;13.80;99.90;;;;;;4947141;29;20499;-68
2023/04/19 08:13:39;;;;;;;10.30;2.50;;;13.60;99.90;;;;;;4968260;28;20032;-66
2023/04/19 08:16:05;;;;;;;7.10;2.33;;;13.80;99.90;;;;;;4947481;28;20035;-66
2023/04/19 08:18:33;;;;;;;7.03;2.75;;;13.90;99.90;;;;;;4951202;28;20498;-67
2023/04/19 08:20:58;;;;;;;5.00;2.65;;;13.70;99.90;;;;;;4952087;28;20043;-70
2023/04/19 08:23:24;;;;;;;14.20;4.25;;;14.10;99.90;;;;;;4953349;29;20035;-69
2023/04/19 08:25:50;;;;;;;7.65;2.97;;;14.00;99.90;;;;;;4947746;29;20462;-69
2023/04/19 08:28:17;;;;;;;6.65;2.90;;;14.00;99.90;;;;;;4953470;28;20035;-69
2023/04/19 08:30:43;;;;;;;6.38;2.85;;;14.00;99.90;;;;;;4948090;28;20106;-69
2023/04/19 08:33:09;;;;;;;6.57;3.55;;;14.00;99.90;;;;;;4953240;29;20115;-69
2023/04/19 08:35:38;;;;;;;6.40;2.60;;;14.00;99.90;;;;;;4946019;28;20038;-69
2023/04/19 08:38:03;;;;;;;5.78;2.45;;;13.70;99.90;;;;;;4938684;28;20027;-69
2023/04/19 08:40:30;;;;;;;5.03;2.97;;;13.70;99.90;;;;;;4955875;28;20039;-69
2023/04/19 08:42:56;;;;;;;5.13;2.42;;;13.90;99.90;;;;;;4953016;29;20487;-69
2023/04/19 08:45:28;;;;;;;5.38;2.63;;;14.00;99.90;;;;;;4949509;29;20041;-68
2023/04/19 08:47:57;;;;;;;4.60;2.92;;;14.10;99.90;;;;;;4951573;29;20094;-69
2023/04/19 08:50:24;;;;;;;8.10;3.42;;;14.00;99.90;;;;;;4947060;29;20035;-69
2023/04/19 08:52:50;;;;;;;6.45;3.00;;;13.60;99.90;;;;;;4953207;28;20035;-69
2023/04/19 08:55:16;;;;;;;5.32;3.33;;;13.50;99.90;;;;;;4948130;28;20122;-69
2023/04/19 08:57:42;;;;;;;7.60;3.15;;;13.60;99.90;;;;;;4951821;29;20110;-68
2023/04/19 09:00:10;;;;;;;6.72;3.38;;;13.90;99.90;;;;;;4948538;28;20460;-68
2023/04/19 09:02:50;;;;;;;5.75;2.60;;;14.10;99.90;;;;;;4952763;29;20102;-68
2023/04/19 09:05:17;;;;;;;6.18;3.05;;;14.10;99.90;;;;;;4947125;29;20031;-68
2023/04/19 09:07:45;;;;;;;5.55;2.60;;;14.50;99.90;;;;;;4952761;28;20023;-68
2023/04/19 09:10:17;;;;;;;6.35;2.85;;;14.50;99.90;;;;;;4966186;28;20035;-68
2023/04/19 09:12:57;;;;;;;6.63;2.15;;;14.50;99.90;;;;;;4951723;29;20102;-69
2023/04/19 09:15:37;;;;;;;6.45;2.78;;;14.70;99.90;;;;;;4947128;29;20035;-68
2023/04/19 09:18:08;;;;;;;5.60;2.88;;;14.80;99.90;;;;;;4951334;29;20046;-68
2023/04/19 09:20:45;;;;;;;5.15;2.63;;;14.70;99.90;;;;;;4947646;28;20107;-68
2023/04/19 09:23:17;;;;;;;5.57;2.72;;;14.20;99.90;;;;;;4952751;29;20039;-68
2023/04/19 09:26:03;;;;;;;7.28;3.33;;;14.40;99.90;;;;;;4950583;29;20036;-68
2023/04/19 09:28:30;;;;;;;7.95;2.92;;;14.40;99.90;;;;;;4952578;29;20035;-68
2023/04/19 09:30:57;;;;;;;5.25;3.25;;;14.20;99.90;;;;;;4947294;28;20059;-69
2023/04/19 09:33:42;;;;;;;5.63;2.72;;;14.30;99.90;;;;;;4967321;28;20031;-68
2023/04/19 09:36:08;;;;;;;5.20;2.42;;;14.40;99.90;;;;;;4946223;29;20035;-68
2023/04/19 09:38:50;;;;;;;6.38;2.70;;;14.40;99.90;;;;;;4952429;29;20118;-68
2023/04/19 09:41:16;;;;;;;7.35;3.33;;;14.40;99.90;;;;;;4947186;28;20031;-68
2023/04/19 09:43:42;;;;;;;6.25;3.22;;;14.50;99.90;;;;;;4952656;28;20024;-67
2023/04/19 09:46:08;;;;;;;11.60;3.78;;;14.60;99.90;;;;;;4946382;29;20027;-68
2023/04/19 09:48:36;;;;;;;27.42;4.15;;;14.60;99.90;;;;;;4952295;29;20027;-69
2023/04/19 09:51:02;;;;;;;6.97;3.10;;;14.60;99.90;;;;;;4950861;28;20133;-70
2023/04/19 09:53:32;;;;;;;4.15;2.40;;;14.00;99.90;;;;;;4952282;28;20487;-68
2023/04/19 09:55:58;;;;;;;14.65;2.45;;;14.30;99.90;;;;;;4947445;29;20035;-69
2023/04/19 09:58:24;;;;;;;4.53;2.67;;;14.40;99.90;;;;;;4952173;28;20078;-69
2023/04/19 10:00:51;;;;;;;8.65;3.15;;;14.70;99.90;;;;;;4947845;28;20035;-70
2023/04/19 10:03:19;;;;;;;6.18;3.00;;;14.60;99.90;;;;;;4966923;28;20090;-68
2023/04/19 10:05:45;;;;;;;8.68;3.08;;;14.40;99.90;;;;;;4946570;29;20051;-69
2023/04/19 10:08:12;;;;;;;5.22;3.10;;;14.50;99.90;;;;;;4950350;29;20507;-70
2023/04/19 10:10:44;;;;;;;7.68;3.40;;;14.00;99.90;;;;;;4947104;28;20055;-70
2023/04/19 10:13:17;;;;;;;5.47;2.92;;;14.00;99.90;;;;;;4951194;29;20028;-70
2023/04/19 10:15:43;;;;;;;8.90;3.45;;;13.80;99.90;;;;;;4958507;28;20425;-69
2023/04/19 10:18:10;;;;;;;6.93;3.45;;;13.70;99.90;;;;;;4950755;29;20680;-70
2023/04/19 10:21:02;;;;;;;5.05;2.75;;;13.80;99.90;;;;;;4946448;28;20032;-68
2023/04/19 10:23:30;;;;;;;4.63;2.25;;;13.50;99.90;;;;;;4961108;28;20038;-68
2023/04/19 10:25:58;;;;;;;4.22;2.47;;;13.60;99.90;;;;;;4945727;29;20027;-68
2023/04/19 10:28:26;;;;;;;6.80;3.15;;;13.70;99.90;;;;;;4950633;29;20496;-68
2023/04/19 10:31:01;;;;;;;5.80;2.85;;;13.70;99.90;;;;;;4965335;28;20058;-69
2023/04/19 10:33:33;;;;;;;5.97;2.40;;;13.60;99.90;;;;;;4966360;28;20031;-69
2023/04/19 10:36:00;;;;;;;6.40;2.40;;;13.60;99.90;;;;;;4947092;29;20054;-68
2023/04/19 10:38:47;;;;;;;7.47;3.20;;;13.50;99.90;;;;;;4951877;28;20035;-69
2023/04/19 10:41:22;;;;;;;7.38;3.22;;;13.20;99.90;;;;;;4948980;28;20090;-69
2023/04/19 10:43:54;;;;;;;4.85;2.38;;;13.10;99.90;;;;;;4955111;28;20123;-69
2023/04/19 10:46:19;;;;;;;5.35;2.60;;;13.20;99.90;;;;;;4950555;29;20395;-69
2023/04/19 10:48:59;;;;;;;4.85;2.53;;;13.20;99.90;;;;;;4955061;28;20046;-69
2023/04/19 10:51:37;;;;;;;6.82;3.65;;;13.30;99.90;;;;;;4950163;28;20046;-69
2023/04/19 10:54:06;;;;;;;5.95;2.15;;;13.50;99.90;;;;;;4967518;28;20284;-70
2023/04/19 10:56:31;;;;;;;7.05;2.67;;;13.60;99.90;;;;;;4949551;29;20122;-69
2023/04/19 10:59:00;;;;;;;4.50;2.65;;;13.70;99.90;;;;;;4954977;28;20110;-69
2023/04/19 11:01:42;;;;;;;4.93;2.95;;;13.60;99.90;;;;;;4950448;28;20118;-69
2023/04/19 11:04:16;;;;;;;5.03;2.38;;;13.90;99.90;;;;;;4935645;29;20040;-69
2023/04/19 11:06:53;;;;;;;4.47;2.55;;;14.10;99.90;;;;;;4951570;29;20034;-68
2023/04/19 11:09:29;;;;;;;7.22;3.08;;;14.50;99.90;;;;;;4936239;29;20492;-69
2023/04/19 11:12:03;;;;;;;11.30;2.67;;;14.80;99.90;;;;;;4953366;29;20039;-69
2023/04/19 11:14:38;;;;;;;6.22;2.88;;;15.10;99.90;;;;;;4950643;29;20043;-69
2023/04/19 11:17:15;;;;;;;4.22;2.08;;;15.50;99.90;;;;;;4968440;28;20035;-69
2023/04/19 11:20:13;;;;;;;4.05;1.98;;;15.50;99.90;;;;;;4949712;29;20095;-69
2023/04/19 11:23:17;;;;;;;4.63;2.50;;;15.90;99.90;;;;;;4950788;29;20041;-69
2023/04/19 11:25:52;;;;;;;3.92;2.05;;;15.70;99.90;;;;;;4949438;28;20391;-69
2023/04/19 11:28:24;;;;;;;5.43;2.35;;;16.00;99.90;;;;;;4966064;28;20035;-70
2023/04/19 11:31:04;;;;;;;3.85;2.00;;;15.80;99.90;;;;;;4944795;28;20502;-69
2023/04/19 11:34:29;;;;;;;3.92;2.50;;;15.70;99.90;;;;;;4954486;28;20075;-70
2023/04/19 11:37:24;;;;;;;4.57;2.05;;;16.50;99.70;;;;;;4952329;29;20066;-70
2023/04/19 11:40:57;;;;;;;3.72;1.80;;;16.70;99.90;;;;;;4927839;28;20461;-70
2023/04/19 11:43:48;;;;;;;4.68;2.08;;;16.70;98.90;;;;;;4926972;29;20039;-69
2023/04/19 11:47:16;;;;;;;3.92;1.55;;;16.80;99.00;;;;;;4942322;28;20049;-69
2023/04/19 11:49:42;;;;;;;3.33;1.85;;;16.90;98.10;;;;;;4935411;29;20051;-69
2023/04/19 11:52:26;;;;;;;2.47;1.35;;;16.60;97.80;;;;;;4954008;29;20027;-70
2023/04/19 11:54:53;;;;;;;5.90;1.73;;;16.60;98.20;;;;;;4948130;28;20039;-69
2023/04/19 12:01:40;;;;;;;4.50;1.45;;;16.70;97.80;;;;;;4912705;29;20051;-70
2023/04/19 12:04:30;;;;;;;3.13;1.40;;;16.60;96.90;;;;;;4912886;29;20442;-69
2023/04/19 12:07:00;;;;;;;4.32;1.20;;;16.70;97.20;;;;;;4913187;29;20690;-69
2023/04/19 12:09:29;;;;;;;2.88;1.38;;;16.40;97.70;;;;;;4912309;29;20035;-70
2023/04/19 12:12:13;;;;;;;4.43;1.90;;;16.10;98.10;;;;;;4913098;29;20506;-69
2023/04/19 12:15:57;;;;;;;2.05;1.00;;;16.30;97.20;;;;;;4912413;29;20139;-68
2023/04/19 12:18:23;;;;;;;2.45;1.15;;;16.00;97.20;;;;;;4864137;29;20451;-68
2023/04/19 12:20:52;;;;;;;2.10;1.08;;;16.40;95.90;;;;;;4867104;29;20100;-69
2023/04/19 12:24:02;;;;;;;2.55;1.38;;;16.60;95.40;;;;;;4869436;29;20041;-69
2023/04/19 12:26:57;;;;;;;3.47;1.42;;;16.50;95.70;;;;;;4863838;29;20089;-70
2023/04/19 12:29:49;;;;;;;2.30;1.10;;;17.00;94.50;;;;;;4840220;29;20056;-69
2023/04/19 12:32:23;;;;;;;3.13;1.65;;;17.70;93.70;;;;;;4857364;29;20037;-69
2023/04/19 12:34:55;;;;;;;4.35;1.50;;;18.40;93.30;;;;;;4857025;29;20084;-69
2023/04/19 12:37:26;;;;;;;3.13;1.58;;;19.00;92.50;;;;;;4874565;29;20103;-69
2023/04/19 12:39:58;;;;;;;3.53;1.58;;;19.60;91.50;;;;;;4906688;29;20123;-68
2023/04/19 12:42:51;;;;;;;2.80;1.30;;;19.10;91.80;;;;;;4904451;29;20032;-68
2023/04/19 12:45:36;;;;;;;5.22;1.70;;;19.80;90.70;;;;;;4885186;29;20512;-68
2023/04/19 12:48:02;;;;;;;1.40;0.90;;;20.30;88.60;;;;;;4888021;29;20601;-68
2023/04/19 12:50:28;;;;;;;2.63;1.50;;;19.70;86.70;;;;;;4898771;29;20099;-69
2023/04/19 12:53:29;;;;;;;7.07;1.60;;;19.20;86.90;;;;;;4947411;29;20094;-69
2023/04/19 12:59:49;;;;;;;8.07;0.90;;;18.50;88.00;;;;;;4870437;29;19919;-69
2023/04/19 13:02:30;;;;;;;4.30;1.20;;;18.50;85.80;;;;;;4886455;29;20067;-69
2023/04/19 13:05:08;;;;;;;5.60;1.60;;;18.00;89.20;;;;;;4872983;29;20037;-69